Terminal Aerodrome Forecast
Issued by NWS

Home | Current Version | Previous Version | Text Only | Print | Product List | Glossary On
Versions: 1 2 3 4 5 6 7 8 9 10 11 12 13 14 15 16 17 18 19 20 21 22 23 24 25 26 27 28 29 30 31 32 33 34 35 36 37 38 39 40 41 42 43 44 45 46 47 48 49 50
000
FTUS44 KHGX 200521
TAFIAH
TAF
KIAH 200521Z 2006/2112 18005KT P6SM SKC
     FM201000 VRB03KT P6SM FEW015
     FM201600 21005KT P6SM FEW025 SCT035
     FM202000 14008KT P6SM VCTS SCT050CB BKN250
      TEMPO 2022/2101 VRB08G25KT TSRA
     FM210300 16005KT P6SM BKN250
     FM211000 15004KT P6SM SCT018 BKN250=

USA.gov is the U.S. government's official web portal to all federal, state and local government web resources and services.